Terminal Aerodrome Forecast
Issued by NWS

Home | Current Version | Previous Version | Text Only | Print | Product List | Glossary Off
Versions: 1 2 3 4 5 6 7 8 9 10 11 12 13 14 15 16 17

674
FTUS43 KOAX 271120
TAFCDR
TAF
KCDR 271120Z 2712/2812 30006KT P6SM VCSH SCT050 BKN100
     FM271500 02011KT P6SM BKN100
     FM272000 08012KT P6SM BKN050
     FM280300 09004KT P6SM SCT200=

USA.gov is the U.S. government's official web portal to all federal, state and local government web resources and services.